createdAt,value
2023-02-22T00:01:40.199Z,2.34
2023-02-22T00:04:13.264Z,2.33
2023-02-22T00:06:47.608Z,2.34
2023-02-22T00:09:21.623Z,2.32
2023-02-22T00:11:54.270Z,2.30
2023-02-22T00:14:27.587Z,2.31
2023-02-22T00:17:01.082Z,2.31
2023-02-22T00:19:34.218Z,2.32
2023-02-22T00:22:08.120Z,2.35
2023-02-22T00:24:41.755Z,2.33
2023-02-22T00:27:15.044Z,2.28
2023-02-22T00:29:47.963Z,2.24
2023-02-22T00:32:20.684Z,2.21
2023-02-22T00:34:56.273Z,2.21
2023-02-22T00:37:31.315Z,2.19
2023-02-22T00:40:05.552Z,2.15
2023-02-22T00:42:38.139Z,2.15
2023-02-22T00:45:11.321Z,2.17
2023-02-22T00:47:43.708Z,2.16
2023-02-22T00:50:16.781Z,2.11
2023-02-22T00:52:49.362Z,2.08
2023-02-22T00:55:26.548Z,2.10
2023-02-22T00:57:59.243Z,2.13
2023-02-22T01:00:38.606Z,2.16
2023-02-22T01:03:13.451Z,2.12
2023-02-22T01:05:46.145Z,2.12
2023-02-22T01:08:19.168Z,2.11
2023-02-22T01:10:52.681Z,2.08
2023-02-22T01:13:25.334Z,2.03
2023-02-22T01:15:57.988Z,2.01
2023-02-22T01:18:30.514Z,2.01
2023-02-22T01:21:03.438Z,2.00
2023-02-22T01:23:35.789Z,1.95
2023-02-22T01:26:09.249Z,1.87
2023-02-22T01:28:41.836Z,1.84
2023-02-22T01:31:14.983Z,1.85
2023-02-22T01:33:48.459Z,1.82
2023-02-22T01:36:22.378Z,1.79
2023-02-22T01:38:55.165Z,1.83
2023-02-22T01:41:27.539Z,1.86
2023-02-22T01:44:00.162Z,1.88
2023-02-22T01:46:32.759Z,1.91
2023-02-22T01:49:10.392Z,1.93
2023-02-22T01:51:47.507Z,1.88
2023-02-22T01:54:32.540Z,1.86
2023-02-22T01:57:18.669Z,1.87
2023-02-22T01:59:53.809Z,1.95
2023-02-22T02:02:26.103Z,1.97
2023-02-22T02:04:59.501Z,1.94
2023-02-22T02:07:32.302Z,1.91
2023-02-22T02:10:14.784Z,1.88
2023-02-22T02:12:49.058Z,1.85
2023-02-22T02:15:33.435Z,1.81
2023-02-22T02:18:08.390Z,1.80
2023-02-22T02:21:02.731Z,1.79
2023-02-22T02:23:44.179Z,1.85
2023-02-22T02:26:59.911Z,1.83
2023-02-22T02:29:46.012Z,1.84
2023-02-22T02:32:32.259Z,1.84
2023-02-22T02:35:29.439Z,1.79
2023-02-22T02:38:25.123Z,1.78
2023-02-22T02:41:05.963Z,1.81
2023-02-22T02:44:00.375Z,1.76
2023-02-22T02:46:39.990Z,1.69
2023-02-22T02:49:22.469Z,1.65
2023-02-22T02:51:56.332Z,1.64
2023-02-22T02:54:28.893Z,1.67
2023-02-22T02:57:01.570Z,1.79
2023-02-22T02:59:38.110Z,1.86
2023-02-22T03:02:48.125Z,1.80
2023-02-22T03:05:52.269Z,1.73
2023-02-22T03:08:44.928Z,1.70
2023-02-22T03:11:23.753Z,1.67
2023-02-22T03:14:14.108Z,1.68
2023-02-22T03:16:56.079Z,1.69
2023-02-22T03:19:45.603Z,1.72
2023-02-22T03:22:25.020Z,1.74
2023-02-22T03:25:12.140Z,1.72
2023-02-22T03:27:59.836Z,1.68
2023-02-22T03:30:48.930Z,1.74
2023-02-22T03:33:36.394Z,1.83
2023-02-22T03:36:31.466Z,1.85
2023-02-22T03:39:04.466Z,1.82
2023-02-22T03:41:38.842Z,1.82
2023-02-22T03:44:13.838Z,1.73
2023-02-22T03:46:46.900Z,1.67
2023-02-22T03:49:41.852Z,1.60
2023-02-22T03:52:14.536Z,1.54
2023-02-22T03:54:47.622Z,1.51
2023-02-22T03:57:26.783Z,1.43
2023-02-22T04:00:00.943Z,1.38
2023-02-22T04:02:33.860Z,1.35
2023-02-22T04:05:06.653Z,1.28
2023-02-22T04:07:39.319Z,1.17
2023-02-22T04:10:13.413Z,1.15
2023-02-22T04:12:46.214Z,1.16
2023-02-22T04:15:22.458Z,1.14
2023-02-22T04:17:56.570Z,1.12
2023-02-22T04:20:29.082Z,1.06
2023-02-22T04:23:03.839Z,1.02
2023-02-22T04:25:36.216Z,0.97
2023-02-22T04:28:10.294Z,0.97
2023-02-22T04:30:44.320Z,0.96
2023-02-22T04:33:19.034Z,0.99
2023-02-22T04:35:51.750Z,1.02
2023-02-22T04:38:26.165Z,0.99
2023-02-22T04:41:00.329Z,0.98
2023-02-22T04:43:32.768Z,0.97
2023-02-22T04:46:06.986Z,0.99
2023-02-22T04:48:39.462Z,0.96
2023-02-22T04:51:11.985Z,0.97
2023-02-22T04:53:46.869Z,0.99
2023-02-22T04:56:20.454Z,0.99
2023-02-22T04:58:53.641Z,0.98
2023-02-22T05:01:26.066Z,0.99
2023-02-22T05:03:58.354Z,1.04
2023-02-22T05:06:31.308Z,1.05
2023-02-22T05:09:03.995Z,1.07
2023-02-22T05:11:37.488Z,1.05
2023-02-22T05:14:09.790Z,1.05
2023-02-22T05:16:42.917Z,1.05
2023-02-22T05:19:15.677Z,1.08
2023-02-22T05:21:48.108Z,1.06
2023-02-22T05:24:21.288Z,1.00
2023-02-22T05:26:53.751Z,0.94
2023-02-22T05:29:26.279Z,0.90
2023-02-22T05:31:59.032Z,0.87
2023-02-22T05:34:31.420Z,0.85
2023-02-22T05:37:03.872Z,0.85
2023-02-22T05:39:37.799Z,0.81
2023-02-22T05:42:10.664Z,0.83
2023-02-22T05:44:43.036Z,0.78
2023-02-22T05:47:15.659Z,0.78
2023-02-22T05:49:48.059Z,0.77
2023-02-22T05:52:20.574Z,0.75
2023-02-22T05:54:53.064Z,0.76
2023-02-22T05:57:25.363Z,0.75
2023-02-22T05:59:58.064Z,0.73
2023-02-22T06:02:30.555Z,0.75
2023-02-22T06:05:03.353Z,0.79
2023-02-22T06:07:36.083Z,0.79
2023-02-22T06:10:08.735Z,0.78
2023-02-22T06:12:41.716Z,0.76
2023-02-22T06:15:16.512Z,0.74
2023-02-22T06:17:49.284Z,0.73
2023-02-22T06:20:24.565Z,0.78
2023-02-22T06:22:58.575Z,0.82
2023-02-22T06:25:32.620Z,0.88
2023-02-22T06:28:05.458Z,0.89
2023-02-22T06:30:38.132Z,0.89
2023-02-22T06:33:11.450Z,0.90
2023-02-22T06:35:43.897Z,0.89
2023-02-22T06:38:26.071Z,0.88
2023-02-22T06:40:58.750Z,0.88
2023-02-22T06:43:31.859Z,0.93
2023-02-22T06:46:04.268Z,1.05
2023-02-22T06:48:40.263Z,1.29
2023-02-22T06:51:12.578Z,1.48
2023-02-22T06:53:45.700Z,1.61
2023-02-22T06:56:18.187Z,1.67
2023-02-22T06:58:50.628Z,1.70
2023-02-22T07:01:23.385Z,1.77
2023-02-22T07:03:57.150Z,1.81
2023-02-22T07:06:30.947Z,1.86
2023-02-22T07:09:03.777Z,1.97
2023-02-22T07:11:37.556Z,2.11
2023-02-22T07:14:10.875Z,2.30
2023-02-22T07:16:43.470Z,2.52
2023-02-22T07:19:15.897Z,2.68
2023-02-22T07:21:48.215Z,2.87
2023-02-22T07:24:20.655Z,3.00
2023-02-22T07:26:54.140Z,2.97
2023-02-22T07:29:26.689Z,2.91
2023-02-22T07:31:59.887Z,2.84
2023-02-22T07:34:32.447Z,2.71
2023-02-22T07:37:04.771Z,2.55
2023-02-22T07:39:38.381Z,2.40
2023-02-22T07:42:11.249Z,2.36
2023-02-22T07:44:43.635Z,2.55
2023-02-22T07:47:16.255Z,2.76
2023-02-22T07:49:50.438Z,2.88
2023-02-22T07:52:23.001Z,2.93
2023-02-22T07:54:55.402Z,2.98
2023-02-22T07:57:27.831Z,2.98
2023-02-22T08:00:00.133Z,2.96
2023-02-22T08:02:32.762Z,2.99
2023-02-22T08:05:06.702Z,2.99
2023-02-22T08:07:43.400Z,3.09
2023-02-22T08:10:16.879Z,3.19
2023-02-22T08:12:50.922Z,3.27
2023-02-22T08:15:30.034Z,3.34
2023-02-22T08:18:03.589Z,3.41
2023-02-22T08:20:35.950Z,3.55
2023-02-22T08:23:10.961Z,3.72
2023-02-22T08:25:43.616Z,3.85
2023-02-22T08:28:22.856Z,3.86
2023-02-22T08:30:55.350Z,3.85
2023-02-22T08:33:29.163Z,3.87
2023-02-22T08:36:02.093Z,4.07
2023-02-22T08:38:35.957Z,4.37
2023-02-22T08:41:08.626Z,4.68
2023-02-22T08:43:41.056Z,4.94
2023-02-22T08:46:13.667Z,5.01
2023-02-22T08:48:53.003Z,4.99
2023-02-22T08:51:27.756Z,5.16
2023-02-22T08:54:00.198Z,5.61
2023-02-22T08:56:33.309Z,6.04
2023-02-22T08:59:06.120Z,6.16
2023-02-22T09:01:39.019Z,6.06
2023-02-22T09:04:11.853Z,6.18
2023-02-22T09:06:47.437Z,6.44
2023-02-22T09:09:21.679Z,6.85
2023-02-22T09:11:54.067Z,7.13
2023-02-22T09:14:26.520Z,7.47
2023-02-22T09:16:59.229Z,7.76
2023-02-22T09:19:32.290Z,7.83
2023-02-22T09:22:05.026Z,7.99
2023-02-22T09:24:37.468Z,8.14
2023-02-22T09:27:11.626Z,8.30
2023-02-22T09:29:44.108Z,8.41
2023-02-22T09:32:19.744Z,8.38
2023-02-22T09:34:52.445Z,8.43
2023-02-22T09:37:25.474Z,8.33
2023-02-22T09:39:57.889Z,8.12
2023-02-22T09:42:36.408Z,8.05
2023-02-22T09:45:16.378Z,8.40
2023-02-22T09:47:57.648Z,8.70
2023-02-22T09:50:35.786Z,8.71
2023-02-22T09:53:31.456Z,8.62
2023-02-22T09:56:17.665Z,8.66
2023-02-22T09:58:53.997Z,8.67
2023-02-22T10:01:39.491Z,8.66
2023-02-22T10:04:34.796Z,9.12
2023-02-22T10:07:14.819Z,9.60
2023-02-22T10:09:49.734Z,9.57
2023-02-22T10:12:51.273Z,9.16
2023-02-22T10:15:41.276Z,9.03
2023-02-22T10:19:00.278Z,9.18
2023-02-22T10:21:53.641Z,9.55
2023-02-22T10:24:39.846Z,10.10
2023-02-22T10:27:22.522Z,10.38
2023-02-22T10:30:05.583Z,10.10
2023-02-22T10:32:45.624Z,9.77
2023-02-22T10:35:25.707Z,9.40
2023-02-22T10:38:02.714Z,9.30
2023-02-22T10:40:35.104Z,9.10
2023-02-22T10:43:09.175Z,8.86
2023-02-22T10:45:41.698Z,8.80
2023-02-22T10:48:18.689Z,9.10
2023-02-22T10:50:51.040Z,9.36
2023-02-22T10:53:24.095Z,9.07
2023-02-22T10:56:21.347Z,8.77
2023-02-22T10:59:03.936Z,8.73
2023-02-22T11:01:41.056Z,8.90
2023-02-22T11:04:23.608Z,9.25
2023-02-22T11:07:06.794Z,9.67
2023-02-22T11:09:54.312Z,9.75
2023-02-22T11:12:39.463Z,9.79
2023-02-22T11:15:25.978Z,10.05
2023-02-22T11:18:01.044Z,10.32
2023-02-22T11:20:38.586Z,10.43
2023-02-22T11:23:12.467Z,10.29
2023-02-22T11:25:44.922Z,10.04
2023-02-22T11:28:33.120Z,9.92
2023-02-22T11:31:19.678Z,9.67
2023-02-22T11:34:01.360Z,9.27
2023-02-22T11:36:42.008Z,8.80
2023-02-22T11:39:34.678Z,8.24
2023-02-22T11:42:25.412Z,7.94
2023-02-22T11:45:23.379Z,7.80
2023-02-22T11:48:01.539Z,7.55
2023-02-22T11:51:00.326Z,7.18
2023-02-22T11:54:05.237Z,6.85
2023-02-22T11:56:44.632Z,6.75
2023-02-22T11:59:42.618Z,6.78
2023-02-22T12:02:31.859Z,6.81
2023-02-22T12:05:30.094Z,6.79
2023-02-22T12:08:28.829Z,6.83
2023-02-22T12:11:27.257Z,6.87
2023-02-22T12:14:11.585Z,6.70
2023-02-22T12:17:03.795Z,6.49
2023-02-22T12:19:52.304Z,6.33
2023-02-22T12:22:33.570Z,6.00
2023-02-22T12:25:32.119Z,5.57
2023-02-22T12:28:23.670Z,5.17
2023-02-22T12:30:50.283Z,4.86
2023-02-22T12:33:27.829Z,4.63
2023-02-22T12:36:01.065Z,4.36
2023-02-22T12:38:39.548Z,4.16
2023-02-22T12:41:19.489Z,3.98
2023-02-22T12:44:02.699Z,3.84
2023-02-22T12:46:41.762Z,3.76
2023-02-22T12:49:42.405Z,3.70
2023-02-22T12:52:49.456Z,3.64
2023-02-22T12:55:45.188Z,3.61
2023-02-22T12:58:37.120Z,3.59
2023-02-22T13:01:22.427Z,3.51
2023-02-22T13:03:56.192Z,3.47
2023-02-22T13:06:48.732Z,3.42
2023-02-22T13:10:15.535Z,3.34
2023-02-22T13:13:08.611Z,3.30
2023-02-22T13:16:01.677Z,3.31
2023-02-22T13:18:44.566Z,3.28
2023-02-22T13:21:41.662Z,3.22
2023-02-22T13:24:22.067Z,3.18
2023-02-22T13:26:59.525Z,3.12
2023-02-22T13:29:43.695Z,3.08
2023-02-22T13:32:55.405Z,3.08
2023-02-22T13:35:59.463Z,3.09
2023-02-22T13:39:07.881Z,3.03
2023-02-22T13:42:00.144Z,3.03
2023-02-22T13:44:55.884Z,3.11
2023-02-22T13:47:52.744Z,3.08
2023-02-22T13:51:11.003Z,2.99
2023-02-22T13:54:02.666Z,2.94
2023-02-22T13:56:36.233Z,2.99
2023-02-22T13:59:08.607Z,3.00
2023-02-22T14:01:49.131Z,2.99
2023-02-22T14:04:35.018Z,3.00
2023-02-22T14:07:21.463Z,2.96
2023-02-22T14:10:00.104Z,2.92
2023-02-22T14:12:50.234Z,2.81
2023-02-22T14:15:31.239Z,2.77
2023-02-22T14:18:07.509Z,2.74
2023-02-22T14:20:40.602Z,2.71
2023-02-22T14:23:40.881Z,2.63
2023-02-22T14:26:37.177Z,2.56
2023-02-22T14:29:18.871Z,2.50
2023-02-22T14:31:56.365Z,2.45
2023-02-22T14:34:44.765Z,2.45
2023-02-22T14:37:33.216Z,2.46
2023-02-22T14:40:21.702Z,2.47
2023-02-22T14:43:11.033Z,2.41
2023-02-22T14:45:51.143Z,2.34
2023-02-22T14:48:42.939Z,2.26
2023-02-22T14:51:29.507Z,2.22
2023-02-22T14:54:29.440Z,2.19
2023-02-22T14:57:21.687Z,2.19
2023-02-22T15:00:24.423Z,2.13
2023-02-22T15:02:59.058Z,2.10
2023-02-22T15:05:39.773Z,2.04
2023-02-22T15:08:14.212Z,1.99
2023-02-22T15:10:48.663Z,1.96
2023-02-22T15:13:27.420Z,1.94
2023-02-22T15:16:03.090Z,1.87
2023-02-22T15:18:47.945Z,1.79
2023-02-22T15:21:24.044Z,1.74
2023-02-22T15:24:05.220Z,1.69
2023-02-22T15:27:00.391Z,1.67
2023-02-22T15:29:45.953Z,1.60
2023-02-22T15:32:38.567Z,1.55
2023-02-22T15:35:25.576Z,1.50
2023-02-22T15:38:07.812Z,1.48
2023-02-22T15:40:42.128Z,1.40
2023-02-22T15:43:22.764Z,1.36
2023-02-22T15:45:56.148Z,1.34
2023-02-22T15:48:28.984Z,1.34
2023-02-22T15:51:14.528Z,1.33
2023-02-22T15:53:48.168Z,1.34
2023-02-22T15:56:26.673Z,1.28
2023-02-22T15:59:13.188Z,1.29
2023-02-22T16:01:48.024Z,1.29
2023-02-22T16:04:27.613Z,1.25
2023-02-22T16:07:10.791Z,1.20
2023-02-22T16:09:49.332Z,1.17
2023-02-22T16:12:27.499Z,1.11
2023-02-22T16:15:00.031Z,1.09
2023-02-22T16:17:55.929Z,1.10
2023-02-22T16:20:26.019Z,1.15
2023-02-22T16:22:59.273Z,1.17
2023-02-22T16:25:37.018Z,1.14
2023-02-22T16:28:35.697Z,1.13
2023-02-22T16:31:10.551Z,1.10
2023-02-22T16:33:45.032Z,1.13
2023-02-22T16:36:17.314Z,1.17
2023-02-22T16:38:52.452Z,1.20
2023-02-22T16:41:26.176Z,1.19
2023-02-22T16:43:58.983Z,1.19
2023-02-22T16:46:32.200Z,1.15
2023-02-22T16:49:05.219Z,1.14
2023-02-22T16:51:54.923Z,1.14
2023-02-22T16:54:42.849Z,1.15
2023-02-22T16:57:21.332Z,1.08
2023-02-22T16:59:55.543Z,1.06
2023-02-22T17:02:28.302Z,1.10
2023-02-22T17:05:00.870Z,1.20
2023-02-22T17:07:33.668Z,1.22
2023-02-22T17:10:06.497Z,1.21
2023-02-22T17:12:40.695Z,1.18
2023-02-22T17:15:23.551Z,1.11
2023-02-22T17:17:56.537Z,0.99
2023-02-22T17:20:32.116Z,0.93
2023-02-22T17:23:08.870Z,0.91
2023-02-22T17:25:45.406Z,0.90
2023-02-22T17:28:17.947Z,0.88
2023-02-22T17:30:51.630Z,0.87
2023-02-22T17:33:28.494Z,0.85
2023-02-22T17:36:02.032Z,0.88
2023-02-22T17:38:34.945Z,0.89
2023-02-22T17:41:07.622Z,0.92
2023-02-22T17:43:40.912Z,0.91
2023-02-22T17:46:13.233Z,0.87
2023-02-22T17:48:45.731Z,0.87
2023-02-22T17:51:19.860Z,0.89
2023-02-22T17:53:52.184Z,0.91
2023-02-22T17:56:24.589Z,0.91
2023-02-22T17:58:57.900Z,0.87
2023-02-22T18:01:31.883Z,0.81
2023-02-22T18:04:05.447Z,0.79
2023-02-22T18:06:40.152Z,0.76
2023-02-22T18:09:14.291Z,0.76
2023-02-22T18:11:47.817Z,0.68
2023-02-22T18:14:26.149Z,0.62
2023-02-22T18:16:58.526Z,0.58
2023-02-22T18:19:31.721Z,0.62
2023-02-22T18:22:04.864Z,0.60
2023-02-22T18:24:38.210Z,0.61
2023-02-22T18:27:12.052Z,0.56
2023-02-22T18:29:45.741Z,0.55
2023-02-22T18:32:18.240Z,0.56
2023-02-22T18:34:51.278Z,0.60
2023-02-22T18:37:23.664Z,0.69
2023-02-22T18:39:59.558Z,0.85
2023-02-22T18:42:32.272Z,0.97
2023-02-22T18:45:06.146Z,0.93
2023-02-22T18:47:43.670Z,0.91
2023-02-22T18:50:19.261Z,0.88
2023-02-22T18:52:51.905Z,0.85
2023-02-22T18:55:24.504Z,0.79
2023-02-22T18:57:57.377Z,0.78
2023-02-22T19:00:29.633Z,0.78
2023-02-22T19:03:02.316Z,0.74
2023-02-22T19:05:36.543Z,0.66
2023-02-22T19:08:11.546Z,0.61
2023-02-22T19:10:44.740Z,0.61
2023-02-22T19:13:19.061Z,0.62
2023-02-22T19:15:51.456Z,0.61
2023-02-22T19:18:25.161Z,0.62
2023-02-22T19:20:59.770Z,0.57
2023-02-22T19:23:34.966Z,0.54
2023-02-22T19:26:08.484Z,0.54
2023-02-22T19:28:40.732Z,0.56
2023-02-22T19:31:31.710Z,0.52
2023-02-22T19:34:09.368Z,0.52
2023-02-22T19:36:46.103Z,0.48
2023-02-22T19:39:20.771Z,0.52
2023-02-22T19:41:53.245Z,0.55
2023-02-22T19:44:26.020Z,0.55
2023-02-22T19:46:58.319Z,0.49
2023-02-22T19:49:31.042Z,0.51
2023-02-22T19:52:03.970Z,0.51
2023-02-22T19:54:37.958Z,0.54
2023-02-22T19:57:10.268Z,0.56
2023-02-22T19:59:42.706Z,0.57
2023-02-22T20:02:15.248Z,0.58
2023-02-22T20:04:49.312Z,0.65
2023-02-22T20:07:21.717Z,0.67
2023-02-22T20:09:55.020Z,0.63
2023-02-22T20:12:27.601Z,0.57
2023-02-22T20:15:00.352Z,0.48
2023-02-22T20:17:33.055Z,0.33
2023-02-22T20:20:07.028Z,0.24
2023-02-22T20:22:40.729Z,0.17
2023-02-22T20:25:13.780Z,0.12
2023-02-22T20:27:46.835Z,0.08
2023-02-22T20:30:19.635Z,0.06
2023-02-22T20:32:52.300Z,0.02
2023-02-22T20:35:24.798Z,0.00
2023-02-22T20:37:57.790Z,-0.01
2023-02-22T20:40:30.211Z,-0.07
2023-02-22T20:43:02.583Z,-0.12
2023-02-22T20:45:39.321Z,-0.20
2023-02-22T20:48:12.493Z,-0.22
2023-02-22T20:50:44.900Z,-0.27
2023-02-22T20:53:18.405Z,-0.30
2023-02-22T20:55:52.846Z,-0.37
2023-02-22T20:58:25.274Z,-0.37
2023-02-22T21:00:59.654Z,-0.40
2023-02-22T21:03:34.412Z,-0.36
2023-02-22T21:06:08.230Z,-0.37
2023-02-22T21:08:40.576Z,-0.30
2023-02-22T21:11:17.928Z,-0.29
2023-02-22T21:13:51.083Z,-0.30
2023-02-22T21:16:28.622Z,-0.31
2023-02-22T21:19:04.630Z,-0.38
2023-02-22T21:21:37.533Z,-0.40
2023-02-22T21:24:11.768Z,-0.30
2023-02-22T21:26:44.220Z,-0.25
2023-02-22T21:29:16.706Z,-0.32
2023-02-22T21:31:49.859Z,-0.37
2023-02-22T21:34:22.533Z,-0.43
2023-02-22T21:36:54.928Z,-0.47
2023-02-22T21:39:29.077Z,-0.49
2023-02-22T21:42:02.553Z,-0.51
2023-02-22T21:44:35.608Z,-0.57
2023-02-22T21:47:08.667Z,-0.60
2023-02-22T21:49:41.146Z,-0.61
2023-02-22T21:52:14.540Z,-0.67
2023-02-22T21:54:47.853Z,-0.70
2023-02-22T21:57:20.352Z,-0.75
2023-02-22T21:59:53.352Z,-0.80
2023-02-22T22:02:26.796Z,-0.83
2023-02-22T22:05:00.299Z,-0.83
2023-02-22T22:07:33.261Z,-0.87
2023-02-22T22:10:07.000Z,-0.93
2023-02-22T22:12:41.116Z,-0.92
2023-02-22T22:15:17.029Z,-0.97
2023-02-22T22:17:50.044Z,-1.04
2023-02-22T22:20:22.425Z,-1.05
2023-02-22T22:22:55.093Z,-1.11
2023-02-22T22:25:28.514Z,-1.05
2023-02-22T22:28:01.336Z,-1.05
2023-02-22T22:30:37.222Z,-1.13
2023-02-22T22:33:11.499Z,-1.22
2023-02-22T22:35:43.973Z,-1.29
2023-02-22T22:38:17.241Z,-1.34
2023-02-22T22:40:51.931Z,-1.39
2023-02-22T22:43:24.448Z,-1.49
2023-02-22T22:46:00.593Z,-1.59
2023-02-22T22:48:36.142Z,-1.68
2023-02-22T22:51:11.346Z,-1.78
2023-02-22T22:53:46.680Z,-1.87
2023-02-22T22:56:24.571Z,-1.97
2023-02-22T22:58:59.097Z,-2.05
2023-02-22T23:01:33.865Z,-2.09
2023-02-22T23:04:09.767Z,-2.09
2023-02-22T23:06:47.882Z,-2.13
2023-02-22T23:09:28.391Z,-2.18
2023-02-22T23:12:04.563Z,-2.22
2023-02-22T23:14:42.212Z,-2.22
2023-02-22T23:17:18.401Z,-2.23
2023-02-22T23:19:51.790Z,-2.24
2023-02-22T23:22:24.326Z,-2.26
2023-02-22T23:24:58.645Z,-2.32
2023-02-22T23:27:30.440Z,-2.34
2023-02-22T23:30:02.930Z,-2.34
2023-02-22T23:32:35.430Z,-2.38
2023-02-22T23:35:08.690Z,-2.40
2023-02-22T23:37:42.800Z,-2.43
2023-02-22T23:40:18.337Z,-2.48
2023-02-22T23:42:51.815Z,-2.54
2023-02-22T23:45:25.308Z,-2.57
2023-02-22T23:48:00.374Z,-2.62
2023-02-22T23:50:35.138Z,-2.63
2023-02-22T23:53:09.525Z,-2.65
2023-02-22T23:55:44.387Z,-2.65
2023-02-22T23:58:17.428Z,-2.64
